Time;durP1;ratioP1;P1;durP2;ratioP2;P2;SDS_P1;SDS_P2;PMS_P1;PMS_P2;Temp;Humidity;BMP_temperature;BMP_pressure;BME280_temperature;BME280_humidity;BME280_pressure;Samples;Min_cycle;Max_cycle;Signal;HPM_P1;HPM_P2
2021/12/21 00:00:34;;;;;;;;;;;;;;;;;;2064814;28;19914;-78
2021/12/21 00:01:37;;;;;;;;;;;;;;;;;;2073195;28;19917;-78
2021/12/21 00:02:38;;;;;;;;;;;;;;;;;;2081480;28;20004;-79
2021/12/21 00:03:38;;;;;;;;;;;;;;;;;;2081584;28;20362;-78
2021/12/21 00:04:39;;;;;;;;;;;;;;;;;;2072810;28;19924;-79
2021/12/21 00:05:40;;;;;;;;;;;;;;;;;;2064744;28;19914;-79
2021/12/21 00:06:43;;;;;;;;;;;;;;;;;;2072948;28;19921;-79
2021/12/21 00:07:44;;;;;;;;;;;;;;;;;;2081788;28;19921;-79
2021/12/21 00:08:44;;;;;;;;;;;;;;;;;;2081448;28;20354;-79
2021/12/21 00:09:45;;;;;;;;;;;;;;;;;;2081538;28;20251;-78
2021/12/21 00:10:47;;;;;;;;;;;;;;;;;;2081569;28;19917;-78
2021/12/21 00:11:48;;;;;;;;;;;;;;;;;;2081635;28;19913;-78
2021/12/21 00:13:22;;;;;;;;;;;;;;;;;;2072832;28;19924;-76
2021/12/21 00:14:24;;;;;;;;;;;;;;;;;;2075249;28;19921;-76
2021/12/21 00:15:54;;;;;;;;;;;;;;;;;;2072745;28;19949;-79
2021/12/21 00:17:12;;;;;;;;;;;;;;;;;;2075435;28;20416;-76
2021/12/21 00:23:42;;;;;;;;;;;;;;;;;;2056398;28;20373;-79
2021/12/21 00:24:47;;;;;;;;;;;;;;;;;;2056348;28;19948;-79
2021/12/21 00:25:48;;;;;;;;;;;;;;;;;;2056285;28;20327;-79
2021/12/21 00:26:48;;;;;;;;;;;;;;;;;;2056348;28;19925;-79
2021/12/21 00:27:51;;;;;;;;;;;;;;;;;;2064121;28;19925;-79
2021/12/21 00:29:51;;;;;;;;;;;;;;;;;;2081489;28;20093;-78
2021/12/21 00:30:52;;;;;;;;;;;;;;;;;;2081484;28;19960;-76
2021/12/21 00:31:52;;;;;;;;;;;;;;;;;;2072761;28;20008;-78
2021/12/21 00:32:52;;;;;;;;;;;;;;;;;;2072934;28;20354;-78
2021/12/21 00:33:53;;;;;;;;;;;;;;;;;;2072628;28;20005;-77
2021/12/21 00:34:53;;;;;;;;;;;;;;;;;;2072924;28;19913;-77
2021/12/21 00:35:53;;;;;;;;;;;;;;;;;;2081315;28;19913;-79
2021/12/21 00:36:54;;;;;;;;;;;;;;;;;;2081485;28;19913;-76
2021/12/21 00:37:56;;;;;;;;;;;;;;;;;;2081414;28;19914;-76
2021/12/21 00:38:57;;;;;;;;;;;;;;;;;;2081362;28;19995;-77
2021/12/21 00:39:57;;;;;;;;;;;;;;;;;;2081369;28;20381;-76
2021/12/21 00:40:58;;;;;;;;;;;;;;;;;;2081570;28;20016;-79
2021/12/21 00:41:58;;;;;;;;;;;;;;;;;;2072691;28;20359;-79
2021/12/21 00:42:58;;;;;;;;;;;;;;;;;;2072918;28;19913;-78
2021/12/21 00:43:58;;;;;;;;;;;;;;;;;;2081336;28;20270;-79
2021/12/21 00:44:59;;;;;;;;;;;;;;;;;;2082430;28;19921;-79
2021/12/21 00:45:59;;;;;;;;;;;;;;;;;;2082986;28;20362;-79
2021/12/21 00:46:59;;;;;;;;;;;;;;;;;;2083019;28;19913;-78
2021/12/21 00:48:00;;;;;;;;;;;;;;;;;;2083000;28;19916;-79
2021/12/21 00:49:12;;;;;;;;;;;;;;;;;;2082945;28;19913;-78
2021/12/21 00:50:16;;;;;;;;;;;;;;;;;;2083105;28;19983;-78
2021/12/21 00:51:18;;;;;;;;;;;;;;;;;;2082918;28;20297;-79
2021/12/21 00:52:18;;;;;;;;;;;;;;;;;;2083063;28;19913;-79
2021/12/21 00:53:18;;;;;;;;;;;;;;;;;;2082915;28;20362;-79
2021/12/21 00:54:18;;;;;;;;;;;;;;;;;;2082868;28;19943;-79
2021/12/21 00:55:19;;;;;;;;;;;;;;;;;;2082923;28;19913;-78
2021/12/21 00:56:20;;;;;;;;;;;;;;;;;;2082871;28;20356;-79
2021/12/21 00:57:20;;;;;;;;;;;;;;;;;;2082930;28;19924;-78
2021/12/21 00:58:20;;;;;;;;;;;;;;;;;;2074224;28;19914;-78
2021/12/21 00:59:21;;;;;;;;;;;;;;;;;;2074325;28;19940;-78
2021/12/21 01:00:22;;;;;;;;;;;;;;;;;;2082982;28;19949;-78
2021/12/21 01:01:22;;;;;;;;;;;;;;;;;;2082783;28;19970;-78
2021/12/21 01:02:25;;;;;;;;;;;;;;;;;;2082427;28;19915;-78
2021/12/21 01:03:28;;;;;;;;;;;;;;;;;;2082463;28;19952;-78
2021/12/21 01:04:35;;;;;;;;;;;;;;;;;;2082857;28;19913;-77
2021/12/21 01:05:55;;;;;;;;;;;;;;;;;;2074147;28;20000;-78
2021/12/21 01:07:08;;;;;;;;;;;;;;;;;;2077028;28;20126;-78
2021/12/21 01:08:12;;;;;;;;;;;;;;;;;;2083051;28;19913;-78
2021/12/21 01:09:42;;;;;;;;;;;;;;;;;;2082761;28;19983;-79
2021/12/21 01:11:51;;;;;;;;;;;;;;;;;;2082784;28;19932;-77
2021/12/21 01:13:00;;;;;;;;;;;;;;;;;;2082941;28;19901;-77
2021/12/21 01:14:51;;;;;;;;;;;;;;;;;;2082683;28;20035;-78
2021/12/21 01:16:57;;;;;;;;;;;;;;;;;;2082860;28;19917;-77
2021/12/21 01:18:07;;;;;;;;;;;;;;;;;;2074019;28;19914;-77
2021/12/21 01:19:17;;;;;;;;;;;;;;;;;;2075493;28;20389;-78
2021/12/21 01:22:06;;;;;;;;;;;;;;;;;;2076652;28;20363;-77
2021/12/21 01:25:33;;;;;;;;;;;;;;;;;;2082779;28;19909;-77
2021/12/21 01:30:01;;;;;;;;;;;;;;;;;;2082677;28;20362;-77
2021/12/21 01:35:32;;;;;;;;;;;;;;;;;;2082777;28;19913;-78
2021/12/21 01:38:45;;;;;;;;;;;;;;;;;;2082610;28;19917;-78
2021/12/21 01:42:19;;;;;;;;;;;;;;;;;;2082769;28;19909;-78
2021/12/21 01:43:26;;;;;;;;;;;;;;;;;;2082341;28;19913;-78
2021/12/21 01:49:32;;;;;;;;;;;;;;;;;;2073882;28;19914;-78
2021/12/21 01:49:50;;;;;;;;;;;;;;;;;;2082691;28;20334;-78
2021/12/21 01:50:51;;;;;;;;;;;;;;;;;;2082558;28;20004;-78
2021/12/21 01:51:51;;;;;;;;;;;;;;;;;;2082507;28;19914;-78
2021/12/21 01:52:51;;;;;;;;;;;;;;;;;;2073817;28;19925;-78
2021/12/21 01:53:52;;;;;;;;;;;;;;;;;;2073879;28;19914;-77
2021/12/21 01:54:53;;;;;;;;;;;;;;;;;;2082536;28;19931;-77
2021/12/21 01:55:53;;;;;;;;;;;;;;;;;;2082126;28;19992;-78
2021/12/21 01:56:53;;;;;;;;;;;;;;;;;;2081879;28;19914;-78
2021/12/21 01:57:54;;;;;;;;;;;;;;;;;;2082459;28;19999;-78
2021/12/21 01:58:54;;;;;;;;;;;;;;;;;;2082521;28;19936;-78
2021/12/21 01:59:54;;;;;;;;;;;;;;;;;;2082480;28;19917;-78
2021/12/21 02:00:55;;;;;;;;;;;;;;;;;;2082491;28;19983;-78
2021/12/21 02:01:55;;;;;;;;;;;;;;;;;;2082487;28;20267;-77
2021/12/21 02:02:55;;;;;;;;;;;;;;;;;;2082382;28;19917;-78
2021/12/21 02:03:56;;;;;;;;;;;;;;;;;;2082368;28;20012;-78
2021/12/21 02:04:56;;;;;;;;;;;;;;;;;;2082412;28;19921;-77
2021/12/21 02:05:56;;;;;;;;;;;;;;;;;;2073644;28;19913;-78
2021/12/21 02:06:56;;;;;;;;;;;;;;;;;;2074005;28;19925;-78
2021/12/21 02:07:57;;;;;;;;;;;;;;;;;;2082439;28;19913;-78
2021/12/21 02:08:57;;;;;;;;;;;;;;;;;;2082464;28;19913;-78
2021/12/21 02:09:57;;;;;;;;;;;;;;;;;;2082400;28;19913;-78
2021/12/21 02:11:03;;;;;;;;;;;;;;;;;;2082455;28;19999;-77
2021/12/21 02:12:08;;;;;;;;;;;;;;;;;;2081856;28;19913;-78
2021/12/21 02:13:08;;;;;;;;;;;;;;;;;;2073718;28;19956;-77
2021/12/21 02:14:10;;;;;;;;;;;;;;;;;;2073639;28;20329;-78
2021/12/21 02:15:10;;;;;;;;;;;;;;;;;;2073763;28;19922;-78
2021/12/21 02:16:11;;;;;;;;;;;;;;;;;;2073600;28;19914;-78
2021/12/21 02:19:21;;;;;;;;;;;;;;;;;;2076178;28;20378;-78
2021/12/21 02:19:58;;;;;;;;;;;;;;;;;;2068282;28;20339;-78
2021/12/21 02:21:23;;;;;;;;;;;;;;;;;;2073602;28;20366;-78
2021/12/21 02:22:24;;;;;;;;;;;;;;;;;;2084682;28;19993;-78
2021/12/21 02:23:37;;;;;;;;;;;;;;;;;;2090597;28;20428;-78
2021/12/21 02:24:50;;;;;;;;;;;;;;;;;;2090602;28;19981;-78
2021/12/21 02:27:27;;;;;;;;;;;;;;;;;;2090643;28;19913;-78
2021/12/21 02:29:30;;;;;;;;;;;;;;;;;;2090477;28;20337;-78
2021/12/21 02:30:30;;;;;;;;;;;;;;;;;;2090451;28;19982;-78
2021/12/21 02:31:31;;;;;;;;;;;;;;;;;;2090472;28;20022;-78
2021/12/21 02:32:31;;;;;;;;;;;;;;;;;;2090492;28;20338;-79
2021/12/21 02:33:32;;;;;;;;;;;;;;;;;;2090429;28;19923;-78
2021/12/21 02:34:32;;;;;;;;;;;;;;;;;;2090545;28;19990;-78
2021/12/21 02:35:32;;;;;;;;;;;;;;;;;;2090384;28;19923;-79
2021/12/21 02:36:33;;;;;;;;;;;;;;;;;;2090424;28;20016;-78
2021/12/21 02:37:33;;;;;;;;;;;;;;;;;;2090447;28;19923;-77
2021/12/21 02:38:33;;;;;;;;;;;;;;;;;;2090458;28;19998;-78
2021/12/21 02:39:34;;;;;;;;;;;;;;;;;;2090386;28;19991;-79
2021/12/21 02:40:34;;;;;;;;;;;;;;;;;;2081632;28;19931;-78
2021/12/21 02:41:35;;;;;;;;;;;;;;;;;;2081617;28;19913;-78
2021/12/21 02:42:35;;;;;;;;;;;;;;;;;;2081589;28;19978;-79
2021/12/21 02:43:38;;;;;;;;;;;;;;;;;;2081644;28;19913;-78
2021/12/21 02:44:39;;;;;;;;;;;;;;;;;;2081652;28;20350;-77
2021/12/21 02:45:39;;;;;;;;;;;;;;;;;;2081575;28;19913;-77
2021/12/21 02:46:40;;;;;;;;;;;;;;;;;;2090396;28;19912;-77
2021/12/21 02:47:41;;;;;;;;;;;;;;;;;;2090188;28;20377;-78
2021/12/21 02:48:41;;;;;;;;;;;;;;;;;;2081577;28;19913;-78
2021/12/21 02:49:41;;;;;;;;;;;;;;;;;;2081517;28;19913;-78
2021/12/21 02:50:41;;;;;;;;;;;;;;;;;;2089905;28;19995;-78
2021/12/21 02:51:44;;;;;;;;;;;;;;;;;;2073383;28;19918;-78
2021/12/21 02:52:46;;;;;;;;;;;;;;;;;;2073664;28;19913;-78
2021/12/21 02:53:46;;;;;;;;;;;;;;;;;;2081833;28;19928;-78
2021/12/21 02:54:46;;;;;;;;;;;;;;;;;;2090250;28;20361;-78
2021/12/21 02:55:47;;;;;;;;;;;;;;;;;;2081412;28;20021;-78
2021/12/21 02:56:47;;;;;;;;;;;;;;;;;;2081527;28;19951;-78
2021/12/21 02:57:47;;;;;;;;;;;;;;;;;;2089836;28;20411;-78
2021/12/21 02:58:48;;;;;;;;;;;;;;;;;;2090225;28;20331;-78
2021/12/21 02:59:48;;;;;;;;;;;;;;;;;;2090219;28;19916;-78
2021/12/21 03:00:48;;;;;;;;;;;;;;;;;;2090192;28;19913;-78
2021/12/21 03:01:49;;;;;;;;;;;;;;;;;;2090186;28;19913;-78
2021/12/21 03:02:49;;;;;;;;;;;;;;;;;;2090143;28;20015;-78
2021/12/21 03:03:49;;;;;;;;;;;;;;;;;;2090187;28;20003;-78
2021/12/21 03:04:51;;;;;;;;;;;;;;;;;;2090152;28;20003;-78
2021/12/21 03:05:54;;;;;;;;;;;;;;;;;;2090088;28;20033;-78
2021/12/21 03:08:09;;;;;;;;;;;;;;;;;;2090030;28;19928;-78
2021/12/21 03:09:36;;;;;;;;;;;;;;;;;;2081495;28;19913;-78
2021/12/21 03:10:32;;;;;;;;;;;;;;;;;;2084565;28;20391;-78
2021/12/21 03:11:56;;;;;;;;;;;;;;;;;;2090144;28;19924;-78
2021/12/21 03:14:04;;;;;;;;;;;;;;;;;;2090118;28;19952;-78
2021/12/21 03:15:05;;;;;;;;;;;;;;;;;;2090168;28;20237;-78
2021/12/21 03:16:05;;;;;;;;;;;;;;;;;;2090066;28;19928;-78
2021/12/21 03:17:06;;;;;;;;;;;;;;;;;;2090076;28;19990;-77
2021/12/21 03:18:06;;;;;;;;;;;;;;;;;;2090144;28;20266;-77
2021/12/21 03:19:08;;;;;;;;;;;;;;;;;;2081224;28;19913;-77
2021/12/21 03:20:08;;;;;;;;;;;;;;;;;;2081625;28;19924;-77
2021/12/21 03:21:09;;;;;;;;;;;;;;;;;;2081290;28;19913;-78
2021/12/21 03:22:10;;;;;;;;;;;;;;;;;;2081372;28;19955;-77
2021/12/21 03:23:10;;;;;;;;;;;;;;;;;;2090025;28;19996;-75
2021/12/21 03:24:10;;;;;;;;;;;;;;;;;;2090031;28;19920;-77
2021/12/21 03:25:11;;;;;;;;;;;;;;;;;;2090073;28;19923;-76
2021/12/21 03:26:12;;;;;;;;;;;;;;;;;;2090029;28;19917;-77
2021/12/21 03:27:12;;;;;;;;;;;;;;;;;;2081179;28;19923;-80
2021/12/21 03:28:12;;;;;;;;;;;;;;;;;;2081456;28;20284;-79
2021/12/21 03:29:12;;;;;;;;;;;;;;;;;;2090011;28;19912;-76
2021/12/21 03:30:17;;;;;;;;;;;;;;;;;;2090040;28;20369;-77
2021/12/21 03:31:17;;;;;;;;;;;;;;;;;;2090019;28;19921;-77
2021/12/21 03:32:17;;;;;;;;;;;;;;;;;;2090040;28;19978;-75
2021/12/21 03:33:18;;;;;;;;;;;;;;;;;;2090031;28;20395;-78
2021/12/21 03:34:18;;;;;;;;;;;;;;;;;;2090083;28;19917;-78
2021/12/21 03:35:18;;;;;;;;;;;;;;;;;;2090040;28;19973;-77
2021/12/21 03:36:19;;;;;;;;;;;;;;;;;;2090081;28;19913;-77
2021/12/21 03:37:19;;;;;;;;;;;;;;;;;;2089983;28;19964;-77
2021/12/21 03:38:19;;;;;;;;;;;;;;;;;;2089981;28;19912;-79
2021/12/21 03:39:20;;;;;;;;;;;;;;;;;;2089913;28;20379;-78
2021/12/21 03:40:21;;;;;;;;;;;;;;;;;;2090023;28;20269;-77
2021/12/21 03:41:21;;;;;;;;;;;;;;;;;;2090034;28;19913;-77
2021/12/21 03:42:23;;;;;;;;;;;;;;;;;;2081239;28;20305;-77
2021/12/21 03:43:23;;;;;;;;;;;;;;;;;;2081538;28;20012;-77
2021/12/21 03:44:25;;;;;;;;;;;;;;;;;;2089953;28;19924;-76
2021/12/21 03:45:28;;;;;;;;;;;;;;;;;;2089910;28;20137;-77
2021/12/21 03:46:32;;;;;;;;;;;;;;;;;;2089944;28;19982;-77
2021/12/21 03:47:32;;;;;;;;;;;;;;;;;;2089950;28;20368;-77
2021/12/21 03:48:33;;;;;;;;;;;;;;;;;;2090038;28;19912;-77
2021/12/21 03:50:34;;;;;;;;;;;;;;;;;;2081317;28;20019;-76
2021/12/21 03:51:34;;;;;;;;;;;;;;;;;;2089949;28;19913;-77
2021/12/21 03:52:34;;;;;;;;;;;;;;;;;;2089835;28;20341;-78
2021/12/21 03:53:35;;;;;;;;;;;;;;;;;;2089953;28;19927;-79
2021/12/21 03:54:36;;;;;;;;;;;;;;;;;;2089784;28;19921;-76
2021/12/21 03:55:36;;;;;;;;;;;;;;;;;;2089878;28;19928;-75
2021/12/21 03:56:41;;;;;;;;;;;;;;;;;;2089907;28;19913;-76
2021/12/21 03:57:41;;;;;;;;;;;;;;;;;;2090114;28;19912;-76
2021/12/21 03:58:42;;;;;;;;;;;;;;;;;;2081040;28;20271;-77
2021/12/21 03:59:43;;;;;;;;;;;;;;;;;;2081186;28;19948;-77
2021/12/21 04:00:43;;;;;;;;;;;;;;;;;;2089860;28;19927;-78
2021/12/21 04:01:44;;;;;;;;;;;;;;;;;;2089937;28;20045;-78
2021/12/21 04:02:44;;;;;;;;;;;;;;;;;;2089867;28;19923;-77
2021/12/21 04:03:44;;;;;;;;;;;;;;;;;;2089307;28;19923;-78
2021/12/21 04:04:45;;;;;;;;;;;;;;;;;;2081036;28;19913;-77
2021/12/21 04:05:45;;;;;;;;;;;;;;;;;;2081121;28;19917;-77
2021/12/21 04:06:46;;;;;;;;;;;;;;;;;;2089804;28;19959;-76
2021/12/21 04:07:47;;;;;;;;;;;;;;;;;;2089827;28;19924;-77
2021/12/21 04:08:47;;;;;;;;;;;;;;;;;;2089803;28;19913;-76
2021/12/21 04:09:48;;;;;;;;;;;;;;;;;;2089789;28;19913;-79
2021/12/21 04:10:49;;;;;;;;;;;;;;;;;;2081039;28;20365;-77
2021/12/21 04:11:49;;;;;;;;;;;;;;;;;;2081127;28;19921;-77
2021/12/21 04:12:49;;;;;;;;;;;;;;;;;;2089762;28;20381;-78
2021/12/21 04:13:50;;;;;;;;;;;;;;;;;;2089778;28;20341;-76
2021/12/21 04:14:52;;;;;;;;;;;;;;;;;;2081048;28;19928;-79
2021/12/21 04:15:53;;;;;;;;;;;;;;;;;;2081181;28;20000;-76
2021/12/21 04:16:53;;;;;;;;;;;;;;;;;;2089773;28;19913;-78
2021/12/21 04:17:54;;;;;;;;;;;;;;;;;;2089788;28;20000;-79
2021/12/21 04:18:54;;;;;;;;;;;;;;;;;;2081050;28;19913;-76
2021/12/21 04:19:55;;;;;;;;;;;;;;;;;;2080632;28;19924;-78
2021/12/21 04:20:55;;;;;;;;;;;;;;;;;;2089731;28;19916;-77
2021/12/21 04:21:55;;;;;;;;;;;;;;;;;;2089637;28;19916;-77
2021/12/21 04:22:55;;;;;;;;;;;;;;;;;;2089744;28;19927;-76
2021/12/21 04:23:56;;;;;;;;;;;;;;;;;;2089699;28;20035;-79
2021/12/21 04:24:56;;;;;;;;;;;;;;;;;;2081019;28;19924;-79
2021/12/21 04:25:57;;;;;;;;;;;;;;;;;;2080965;28;20358;-79
2021/12/21 04:26:57;;;;;;;;;;;;;;;;;;2089748;28;19923;-78
2021/12/21 04:27:57;;;;;;;;;;;;;;;;;;2081041;28;19957;-78
2021/12/21 04:28:57;;;;;;;;;;;;;;;;;;2081117;28;20005;-78
2021/12/21 04:29:58;;;;;;;;;;;;;;;;;;2080956;28;20362;-77
2021/12/21 04:31:00;;;;;;;;;;;;;;;;;;2081205;28;19948;-79
2021/12/21 04:32:01;;;;;;;;;;;;;;;;;;2089670;28;19924;-79
2021/12/21 04:33:02;;;;;;;;;;;;;;;;;;2089842;28;19913;-78
2021/12/21 04:34:02;;;;;;;;;;;;;;;;;;2080799;28;19919;-77
2021/12/21 04:35:03;;;;;;;;;;;;;;;;;;2081093;28;19949;-77
2021/12/21 04:36:03;;;;;;;;;;;;;;;;;;2089797;28;20322;-77
2021/12/21 04:37:04;;;;;;;;;;;;;;;;;;2089738;28;20324;-77
2021/12/21 04:38:21;;;;;;;;;;;;;;;;;;2089782;28;19996;-77
2021/12/21 04:39:34;;;;;;;;;;;;;;;;;;2089791;28;19924;-79
2021/12/21 04:40:45;;;;;;;;;;;;;;;;;;2089702;28;19974;-79
2021/12/21 04:41:46;;;;;;;;;;;;;;;;;;2081040;28;20015;-76
2021/12/21 04:42:46;;;;;;;;;;;;;;;;;;2080908;28;19913;-79
2021/12/21 04:43:46;;;;;;;;;;;;;;;;;;2089623;28;19913;-78
2021/12/21 04:44:46;;;;;;;;;;;;;;;;;;2089573;28;19913;-79
2021/12/21 04:45:47;;;;;;;;;;;;;;;;;;2080815;28;20289;-77
2021/12/21 04:46:47;;;;;;;;;;;;;;;;;;2072733;28;20238;-79
2021/12/21 04:47:47;;;;;;;;;;;;;;;;;;2081031;28;19913;-78
2021/12/21 04:48:48;;;;;;;;;;;;;;;;;;2089594;28;19919;-78
2021/12/21 04:49:48;;;;;;;;;;;;;;;;;;2089828;28;20331;-78
2021/12/21 04:50:49;;;;;;;;;;;;;;;;;;2089597;28;19913;-77
2021/12/21 04:51:49;;;;;;;;;;;;;;;;;;2089768;28;20369;-78
2021/12/21 04:52:49;;;;;;;;;;;;;;;;;;2080886;28;19923;-76
2021/12/21 04:53:50;;;;;;;;;;;;;;;;;;2080855;28;20248;-77
2021/12/21 04:54:50;;;;;;;;;;;;;;;;;;2089192;28;19917;-77
2021/12/21 04:55:50;;;;;;;;;;;;;;;;;;2089562;28;19913;-77
2021/12/21 04:56:53;;;;;;;;;;;;;;;;;;2089643;28;19913;-79
2021/12/21 04:57:53;;;;;;;;;;;;;;;;;;2089594;28;19913;-77
2021/12/21 04:58:53;;;;;;;;;;;;;;;;;;2089699;28;20388;-76
2021/12/21 04:59:54;;;;;;;;;;;;;;;;;;2089687;28;20020;-79
2021/12/21 05:00:54;;;;;;;;;;;;;;;;;;2089222;28;19913;-76
2021/12/21 05:01:55;;;;;;;;;;;;;;;;;;2080882;28;19913;-76
2021/12/21 05:02:58;;;;;;;;;;;;;;;;;;2080930;28;19957;-78
2021/12/21 05:03:58;;;;;;;;;;;;;;;;;;2089548;28;19913;-78
2021/12/21 05:04:58;;;;;;;;;;;;;;;;;;2089706;28;19912;-77
2021/12/21 05:05:59;;;;;;;;;;;;;;;;;;2089386;28;19913;-78
2021/12/21 05:07:00;;;;;;;;;;;;;;;;;;2089454;28;20357;-77
2021/12/21 05:08:22;;;;;;;;;;;;;;;;;;2089607;28;20015;-77
2021/12/21 05:09:28;;;;;;;;;;;;;;;;;;2089614;28;19924;-77
2021/12/21 05:10:28;;;;;;;;;;;;;;;;;;2089558;28;19971;-75
2021/12/21 05:11:32;;;;;;;;;;;;;;;;;;2089652;28;20234;-79
2021/12/21 05:12:33;;;;;;;;;;;;;;;;;;2089474;28;19923;-79
2021/12/21 05:13:35;;;;;;;;;;;;;;;;;;2080762;28;19924;-78
2021/12/21 05:14:36;;;;;;;;;;;;;;;;;;2072791;28;20305;-78
2021/12/21 05:15:36;;;;;;;;;;;;;;;;;;2080779;28;19913;-79
2021/12/21 05:16:37;;;;;;;;;;;;;;;;;;2089588;28;20007;-78
2021/12/21 05:17:37;;;;;;;;;;;;;;;;;;2080836;28;19913;-78
2021/12/21 05:18:38;;;;;;;;;;;;;;;;;;2080893;28;20347;-79
2021/12/21 05:19:38;;;;;;;;;;;;;;;;;;2089578;28;19912;-79
2021/12/21 05:20:38;;;;;;;;;;;;;;;;;;2089658;28;19913;-78
2021/12/21 05:21:39;;;;;;;;;;;;;;;;;;2089451;28;19951;-78
2021/12/21 05:22:39;;;;;;;;;;;;;;;;;;2089533;28;19921;-78
2021/12/21 05:23:39;;;;;;;;;;;;;;;;;;2089645;28;20003;-78
2021/12/21 05:24:42;;;;;;;;;;;;;;;;;;2089460;28;19921;-78
2021/12/21 05:25:42;;;;;;;;;;;;;;;;;;2089492;28;20353;-79
2021/12/21 05:26:42;;;;;;;;;;;;;;;;;;2089514;28;19917;-79
2021/12/21 05:27:42;;;;;;;;;;;;;;;;;;2089598;28;19928;-78
2021/12/21 05:28:43;;;;;;;;;;;;;;;;;;2089476;28;19991;-78
2021/12/21 05:29:43;;;;;;;;;;;;;;;;;;2089707;28;19994;-79
2021/12/21 05:30:44;;;;;;;;;;;;;;;;;;2089506;28;20322;-78
2021/12/21 05:31:44;;;;;;;;;;;;;;;;;;2090091;28;19913;-78
2021/12/21 05:32:44;;;;;;;;;;;;;;;;;;2090991;28;19952;-78
2021/12/21 05:33:49;;;;;;;;;;;;;;;;;;2090972;28;20078;-78
2021/12/21 05:34:49;;;;;;;;;;;;;;;;;;2090842;28;19956;-79
2021/12/21 05:35:50;;;;;;;;;;;;;;;;;;2082171;28;19913;-79
2021/12/21 05:36:50;;;;;;;;;;;;;;;;;;2074040;28;20386;-79
2021/12/21 05:37:53;;;;;;;;;;;;;;;;;;2082312;28;20329;-79
2021/12/21 05:38:59;;;;;;;;;;;;;;;;;;2082588;28;20100;-79
2021/12/21 05:40:11;;;;;;;;;;;;;;;;;;2091047;28;19913;-78
2021/12/21 05:41:21;;;;;;;;;;;;;;;;;;2090848;28;19927;-78
2021/12/21 05:42:22;;;;;;;;;;;;;;;;;;2091085;28;19942;-78
2021/12/21 05:43:22;;;;;;;;;;;;;;;;;;2082057;28;19971;-78
2021/12/21 05:44:24;;;;;;;;;;;;;;;;;;2082332;28;19913;-78
2021/12/21 05:45:24;;;;;;;;;;;;;;;;;;2090515;28;20320;-79
2021/12/21 05:46:24;;;;;;;;;;;;;;;;;;2090873;28;19912;-78
2021/12/21 05:47:24;;;;;;;;;;;;;;;;;;2073902;28;19921;-78
2021/12/21 05:48:25;;;;;;;;;;;;;;;;;;2074040;28;20370;-78
2021/12/21 05:49:25;;;;;;;;;;;;;;;;;;2090764;28;19917;-77
2021/12/21 05:50:25;;;;;;;;;;;;;;;;;;2090894;28;19916;-78
2021/12/21 05:51:25;;;;;;;;;;;;;;;;;;2090838;28;19917;-77
2021/12/21 05:52:28;;;;;;;;;;;;;;;;;;2090874;28;19924;-78
2021/12/21 05:53:30;;;;;;;;;;;;;;;;;;2090762;28;20417;-78
2021/12/21 05:54:31;;;;;;;;;;;;;;;;;;2081975;28;20032;-77
2021/12/21 05:55:33;;;;;;;;;;;;;;;;;;2082059;28;19988;-77
2021/12/21 05:56:34;;;;;;;;;;;;;;;;;;2090760;28;19909;-78
2021/12/21 05:57:34;;;;;;;;;;;;;;;;;;2090808;28;20313;-77
2021/12/21 05:58:34;;;;;;;;;;;;;;;;;;2090761;28;20381;-76
2021/12/21 05:59:35;;;;;;;;;;;;;;;;;;2081971;28;19945;-78
2021/12/21 06:00:35;;;;;;;;;;;;;;;;;;2082208;28;20273;-76
2021/12/21 06:01:35;;;;;;;;;;;;;;;;;;2090801;28;19924;-78
2021/12/21 06:02:36;;;;;;;;;;;;;;;;;;2081869;28;20337;-78
2021/12/21 06:03:36;;;;;;;;;;;;;;;;;;2082047;28;19979;-77
2021/12/21 06:04:36;;;;;;;;;;;;;;;;;;2090852;28;19913;-77
2021/12/21 06:05:37;;;;;;;;;;;;;;;;;;2090841;28;19924;-77
2021/12/21 06:06:37;;;;;;;;;;;;;;;;;;2090646;28;20350;-77
2021/12/21 06:07:37;;;;;;;;;;;;;;;;;;2090781;28;19913;-77
2021/12/21 06:08:38;;;;;;;;;;;;;;;;;;2081957;28;20428;-77
2021/12/21 06:09:39;;;;;;;;;;;;;;;;;;2082233;28;20012;-77
2021/12/21 06:10:42;;;;;;;;;;;;;;;;;;2090675;28;19912;-78
2021/12/21 06:11:49;;;;;;;;;;;;;;;;;;2090649;28;19982;-77
2021/12/21 06:22:45;;;;;;;;;;;;;;;;;;2055399;28;19926;-77
2021/12/21 06:26:11;;;;;;;;;;;;;;;;;;2049098;29;20363;-78
2021/12/21 06:27:13;;;;;;;;;;;;;;;;;;2077665;28;19928;-79
2021/12/21 06:28:14;;;;;;;;;;;;;;;;;;2082522;28;20010;-78
2021/12/21 06:29:14;;;;;;;;;;;;;;;;;;2082124;28;20350;-77
2021/12/21 06:30:15;;;;;;;;;;;;;;;;;;2082216;28;19920;-78
2021/12/21 06:31:17;;;;;;;;;;;;;;;;;;2073688;28;19913;-78
2021/12/21 06:32:17;;;;;;;;;;;;;;;;;;2073887;28;19913;-77
2021/12/21 06:33:17;;;;;;;;;;;;;;;;;;2082195;28;19967;-78
2021/12/21 06:34:18;;;;;;;;;;;;;;;;;;2082256;28;19967;-78
2021/12/21 06:35:18;;;;;;;;;;;;;;;;;;2082282;28;20034;-78
2021/12/21 06:36:18;;;;;;;;;;;;;;;;;;2082140;28;19913;-77
2021/12/21 06:37:20;;;;;;;;;;;;;;;;;;2082194;28;20329;-77
2021/12/21 06:38:20;;;;;;;;;;;;;;;;;;2082106;28;19928;-78
2021/12/21 06:39:20;;;;;;;;;;;;;;;;;;2082124;28;20357;-78
2021/12/21 06:40:21;;;;;;;;;;;;;;;;;;2082177;28;19913;-78
2021/12/21 06:41:21;;;;;;;;;;;;;;;;;;2082237;28;19935;-78
2021/12/21 06:42:22;;;;;;;;;;;;;;;;;;2081772;28;20381;-79
2021/12/21 06:43:23;;;;;;;;;;;;;;;;;;2082219;28;19975;-77
2021/12/21 06:44:23;;;;;;;;;;;;;;;;;;2082132;28;19948;-77
2021/12/21 06:45:43;;;;;;;;;;;;;;;;;;2073636;28;19918;-78
2021/12/21 06:51:49;;;;;;;;;;;;;;;;;;2082246;28;19913;-78
2021/12/21 06:52:50;;;;;;;;;;;;;;;;;;2082133;28;20347;-78
2021/12/21 06:53:52;;;;;;;;;;;;;;;;;;2073412;28;19918;-77
2021/12/21 06:54:53;;;;;;;;;;;;;;;;;;2073660;28;20366;-78
2021/12/21 06:55:53;;;;;;;;;;;;;;;;;;2082108;28;19963;-78
2021/12/21 06:56:53;;;;;;;;;;;;;;;;;;2082222;28;19913;-78
2021/12/21 06:57:56;;;;;;;;;;;;;;;;;;2082164;28;19913;-78
2021/12/21 06:58:59;;;;;;;;;;;;;;;;;;2082055;28;19917;-77
2021/12/21 06:59:59;;;;;;;;;;;;;;;;;;2082015;28;20294;-78
2021/12/21 07:01:00;;;;;;;;;;;;;;;;;;2082075;28;20007;-77
2021/12/21 07:02:00;;;;;;;;;;;;;;;;;;2082019;28;19924;-77
2021/12/21 07:03:00;;;;;;;;;;;;;;;;;;2082056;28;20331;-78
2021/12/21 07:04:01;;;;;;;;;;;;;;;;;;2082006;28;20008;-77
2021/12/21 07:05:01;;;;;;;;;;;;;;;;;;2081996;28;19988;-77
2021/12/21 07:06:03;;;;;;;;;;;;;;;;;;2082021;28;19921;-78
2021/12/21 07:07:03;;;;;;;;;;;;;;;;;;2082015;28;19982;-78
2021/12/21 07:08:04;;;;;;;;;;;;;;;;;;2082041;28;20321;-78
2021/12/21 07:09:19;;;;;;;;;;;;;;;;;;2081927;28;19912;-76
2021/12/21 07:10:26;;;;;;;;;;;;;;;;;;2082139;28;19992;-76
2021/12/21 07:18:36;;;;;;;;;;;;;;;;;;2081955;28;19917;-78
2021/12/21 07:19:36;;;;;;;;;;;;;;;;;;2081720;28;20000;-78
2021/12/21 07:20:37;;;;;;;;;;;;;;;;;;2081983;28;20526;-77
2021/12/21 07:21:37;;;;;;;;;;;;;;;;;;2083056;28;20016;-78
2021/12/21 07:22:40;;;;;;;;;;;;;;;;;;2090191;28;20507;-78
2021/12/21 07:23:40;;;;;;;;;;;;;;;;;;2090121;28;19952;-78
2021/12/21 07:24:41;;;;;;;;;;;;;;;;;;2090181;28;19968;-78
2021/12/21 07:25:41;;;;;;;;;;;;;;;;;;2090026;28;19913;-78
2021/12/21 07:26:41;;;;;;;;;;;;;;;;;;2090370;28;19924;-78
2021/12/21 07:27:42;;;;;;;;;;;;;;;;;;2090026;28;20349;-77
2021/12/21 07:28:43;;;;;;;;;;;;;;;;;;2090093;28;20336;-79
2021/12/21 07:29:43;;;;;;;;;;;;;;;;;;2081269;28;19917;-80
2021/12/21 07:30:44;;;;;;;;;;;;;;;;;;2073261;28;19917;-78
2021/12/21 07:31:47;;;;;;;;;;;;;;;;;;2081414;28;20317;-79
2021/12/21 07:32:49;;;;;;;;;;;;;;;;;;2089997;28;19970;-78
2021/12/21 07:33:50;;;;;;;;;;;;;;;;;;2089847;28;19928;-78
2021/12/21 07:34:50;;;;;;;;;;;;;;;;;;2090083;28;20352;-78
2021/12/21 07:35:51;;;;;;;;;;;;;;;;;;2089972;28;19925;-78
2021/12/21 07:36:51;;;;;;;;;;;;;;;;;;2081190;28;19966;-79
2021/12/21 07:37:51;;;;;;;;;;;;;;;;;;2081386;28;19945;-78
2021/12/21 07:38:52;;;;;;;;;;;;;;;;;;2081224;28;19916;-78
2021/12/21 07:39:52;;;;;;;;;;;;;;;;;;2073171;28;20004;-79
2021/12/21 07:40:53;;;;;;;;;;;;;;;;;;2081369;28;19914;-78
2021/12/21 07:41:53;;;;;;;;;;;;;;;;;;2089958;28;20353;-78
2021/12/21 07:42:53;;;;;;;;;;;;;;;;;;2089475;28;19912;-78
2021/12/21 07:43:54;;;;;;;;;;;;;;;;;;2089553;28;19912;-76
2021/12/21 07:44:54;;;;;;;;;;;;;;;;;;2081231;28;19923;-80
2021/12/21 07:45:54;;;;;;;;;;;;;;;;;;2081137;28;19921;-77
2021/12/21 07:46:54;;;;;;;;;;;;;;;;;;2089479;28;19920;-77
2021/12/21 07:47:55;;;;;;;;;;;;;;;;;;2089893;28;20317;-79
2021/12/21 07:48:55;;;;;;;;;;;;;;;;;;2089830;28;19924;-79
2021/12/21 07:49:55;;;;;;;;;;;;;;;;;;2089976;28;19917;-78
2021/12/21 07:50:56;;;;;;;;;;;;;;;;;;2089795;28;20247;-76
2021/12/21 07:51:56;;;;;;;;;;;;;;;;;;2089881;28;20285;-78
2021/12/21 07:53:00;;;;;;;;;;;;;;;;;;2089824;28;20574;-78
2021/12/21 07:54:00;;;;;;;;;;;;;;;;;;2080731;28;20358;-78
2021/12/21 07:55:00;;;;;;;;;;;;;;;;;;2080834;28;19959;-77
2021/12/21 07:56:02;;;;;;;;;;;;;;;;;;2089821;28;19947;-76
2021/12/21 07:57:03;;;;;;;;;;;;;;;;;;2089957;28;19924;-78
2021/12/21 07:58:06;;;;;;;;;;;;;;;;;;2081169;28;20404;-79
2021/12/21 07:59:07;;;;;;;;;;;;;;;;;;2081540;28;20015;-78
2021/12/21 08:00:10;;;;;;;;;;;;;;;;;;2081123;28;19913;-79
2021/12/21 08:01:11;;;;;;;;;;;;;;;;;;2081504;28;19979;-79
2021/12/21 08:02:12;;;;;;;;;;;;;;;;;;2089610;28;19916;-77
2021/12/21 08:03:15;;;;;;;;;;;;;;;;;;2080947;28;20361;-77
2021/12/21 08:04:15;;;;;;;;;;;;;;;;;;2081534;28;19913;-77
2021/12/21 08:05:16;;;;;;;;;;;;;;;;;;2089839;28;20385;-78